createdAt,value
2019-02-20T00:01:29.347Z,7.50
2019-02-20T00:03:59.454Z,7.50
2019-02-20T00:06:29.372Z,7.50
2019-02-20T00:09:00.475Z,7.30
2019-02-20T00:11:30.375Z,7.20
2019-02-20T00:14:00.669Z,7.00
2019-02-20T00:16:30.595Z,7.10
2019-02-20T00:19:00.507Z,7.30
2019-02-20T00:21:30.729Z,7.10
2019-02-20T00:24:01.026Z,7.20
2019-02-20T00:26:30.935Z,7.10
2019-02-20T00:29:00.850Z,6.90
2019-02-20T00:31:30.959Z,7.00
2019-02-20T00:34:00.971Z,6.80
2019-02-20T00:36:30.890Z,6.70
2019-02-20T00:39:00.896Z,6.70
2019-02-20T00:41:30.805Z,6.70
2019-02-20T00:44:02.296Z,6.50
2019-02-20T00:46:34.129Z,6.50
2019-02-20T00:49:06.056Z,6.40
2019-02-20T00:51:40.883Z,6.30
2019-02-20T00:54:10.801Z,6.40
2019-02-20T00:56:41.007Z,6.50
2019-02-20T00:59:10.917Z,6.50
2019-02-20T01:01:41.210Z,6.60
2019-02-20T01:04:11.140Z,6.60
2019-02-20T01:06:41.151Z,6.60
2019-02-20T01:09:11.457Z,6.60
2019-02-20T01:11:41.372Z,6.50
2019-02-20T01:14:11.680Z,6.20
2019-02-20T01:16:41.475Z,6.20
2019-02-20T01:19:11.700Z,6.20
2019-02-20T01:21:41.615Z,6.10
2019-02-20T01:24:11.741Z,6.40
2019-02-20T01:26:41.749Z,6.30
2019-02-20T01:29:11.653Z,6.40
2019-02-20T01:31:41.958Z,6.40
2019-02-20T01:34:11.869Z,6.30
2019-02-20T01:36:41.787Z,6.20
2019-02-20T01:39:11.898Z,6.30
2019-02-20T01:41:41.807Z,6.20
2019-02-20T01:44:11.722Z,6.20
2019-02-20T01:46:41.661Z,6.00
2019-02-20T01:49:11.744Z,6.10
2019-02-20T01:51:41.931Z,6.20
2019-02-20T01:54:11.967Z,6.00
2019-02-20T01:56:41.885Z,6.00
2019-02-20T01:59:11.788Z,5.90
2019-02-20T02:01:41.703Z,5.90
2019-02-20T02:04:11.617Z,5.80
2019-02-20T02:06:41.533Z,5.80
2019-02-20T02:09:11.641Z,5.90
2019-02-20T02:11:41.657Z,6.00
2019-02-20T02:14:12.060Z,5.90
2019-02-20T02:16:41.900Z,5.90
2019-02-20T02:19:11.885Z,5.70
2019-02-20T02:21:42.074Z,5.80
2019-02-20T02:24:12.299Z,5.70
2019-02-20T02:26:42.414Z,5.60
2019-02-20T02:29:12.421Z,5.40
2019-02-20T02:31:42.635Z,5.50
2019-02-20T02:34:12.458Z,5.70
2019-02-20T02:36:42.377Z,5.60
2019-02-20T02:39:12.344Z,5.50
2019-02-20T02:41:44.696Z,5.50
2019-02-20T02:44:13.976Z,5.70
2019-02-20T02:46:43.881Z,5.70
2019-02-20T02:49:14.039Z,5.80
2019-02-20T02:51:44.004Z,5.70
2019-02-20T02:54:13.916Z,5.50
2019-02-20T02:56:43.730Z,5.40
2019-02-20T02:59:13.745Z,5.30
2019-02-20T03:01:43.855Z,5.30
2019-02-20T03:04:13.766Z,5.20
2019-02-20T03:06:43.679Z,5.10
2019-02-20T03:09:13.693Z,5.10
2019-02-20T03:11:43.805Z,5.00
2019-02-20T03:14:13.914Z,4.90
2019-02-20T03:16:44.023Z,4.80
2019-02-20T03:19:14.038Z,4.80
2019-02-20T03:21:44.146Z,5.00
2019-02-20T03:24:14.061Z,5.00
2019-02-20T03:26:44.368Z,5.00
2019-02-20T03:29:14.673Z,5.00
2019-02-20T03:31:44.591Z,4.90
2019-02-20T03:34:14.499Z,5.10
2019-02-20T03:36:44.707Z,5.20
2019-02-20T03:39:14.620Z,5.20
2019-02-20T03:41:44.829Z,5.10
2019-02-20T03:44:15.037Z,5.10
2019-02-20T03:46:44.979Z,5.00
2019-02-20T03:49:14.961Z,5.10
2019-02-20T03:51:44.878Z,5.10
2019-02-20T03:54:14.789Z,5.00
2019-02-20T03:56:44.701Z,5.10
2019-02-20T03:59:14.719Z,5.40
2019-02-20T04:01:44.726Z,5.30
2019-02-20T04:04:14.640Z,5.40
2019-02-20T04:06:44.849Z,5.50
2019-02-20T04:09:14.963Z,5.40
2019-02-20T04:11:44.971Z,5.40
2019-02-20T04:14:14.983Z,5.20
2019-02-20T04:16:44.901Z,5.30
2019-02-20T04:19:14.873Z,5.30
2019-02-20T04:21:44.918Z,5.10
2019-02-20T04:24:14.935Z,5.00
2019-02-20T04:26:44.849Z,5.00
2019-02-20T04:29:14.762Z,5.00
2019-02-20T04:31:44.875Z,5.00
2019-02-20T04:34:14.978Z,5.10
2019-02-20T04:36:45.383Z,5.10
2019-02-20T04:39:15.298Z,5.00
2019-02-20T04:41:45.210Z,4.90
2019-02-20T04:44:15.123Z,5.00
2019-02-20T04:46:45.039Z,5.10
2019-02-20T04:49:15.047Z,4.80
2019-02-20T04:51:44.975Z,4.80
2019-02-20T04:54:14.976Z,4.70
2019-02-20T04:56:44.887Z,4.80
2019-02-20T04:59:14.804Z,4.80
2019-02-20T05:01:44.715Z,4.70
2019-02-20T05:04:14.629Z,4.60
2019-02-20T05:06:44.542Z,4.50
2019-02-20T05:09:14.456Z,4.50
2019-02-20T05:11:44.959Z,4.50
2019-02-20T05:14:14.876Z,4.60
2019-02-20T05:16:44.789Z,4.60
2019-02-20T05:19:14.897Z,4.40
2019-02-20T05:21:44.808Z,4.40
2019-02-20T05:24:24.122Z,4.50
2019-02-20T05:26:46.895Z,4.60
2019-02-20T05:29:16.812Z,4.40
2019-02-20T05:31:47.018Z,4.30
2019-02-20T05:34:16.932Z,4.30
2019-02-20T05:36:46.868Z,4.30
2019-02-20T05:39:17.058Z,4.30
2019-02-20T05:41:46.972Z,4.30
2019-02-20T05:44:16.882Z,4.20
2019-02-20T05:46:46.991Z,4.20
2019-02-20T05:49:16.969Z,4.20
2019-02-20T05:51:47.066Z,4.50
2019-02-20T05:54:17.026Z,4.30
2019-02-20T05:56:46.940Z,4.20
2019-02-20T05:59:16.955Z,4.10
2019-02-20T06:01:47.020Z,4.20
2019-02-20T06:04:17.288Z,4.20
2019-02-20T06:06:47.186Z,4.20
2019-02-20T06:09:17.101Z,4.10
2019-02-20T06:11:47.221Z,4.10
2019-02-20T06:14:17.220Z,4.10
2019-02-20T06:16:47.624Z,4.20
2019-02-20T06:19:17.539Z,4.20
2019-02-20T06:21:47.649Z,4.20
2019-02-20T06:24:17.562Z,4.40
2019-02-20T06:26:47.474Z,4.60
2019-02-20T06:29:17.389Z,4.40
2019-02-20T06:31:47.597Z,4.30
2019-02-20T06:34:17.514Z,4.20
2019-02-20T06:36:48.014Z,4.20
2019-02-20T06:39:17.928Z,4.20
2019-02-20T06:41:47.844Z,4.20
2019-02-20T06:44:17.756Z,4.10
2019-02-20T06:46:47.668Z,4.10
2019-02-20T06:49:17.582Z,4.10
2019-02-20T06:51:47.497Z,4.10
2019-02-20T06:54:17.410Z,4.30
2019-02-20T06:56:47.321Z,4.30
2019-02-20T06:59:17.236Z,4.20
2019-02-20T07:01:47.350Z,4.30
2019-02-20T07:04:17.360Z,4.40
2019-02-20T07:06:54.533Z,4.50
2019-02-20T07:09:51.690Z,4.50
2019-02-20T07:12:53.355Z,4.40
2019-02-20T07:15:54.727Z,4.30
2019-02-20T07:18:35.061Z,4.30
2019-02-20T07:21:24.170Z,4.40
2019-02-20T07:24:16.373Z,4.50
2019-02-20T07:27:14.990Z,4.60
2019-02-20T07:30:00.927Z,4.60
2019-02-20T07:32:31.724Z,4.50
2019-02-20T07:35:02.134Z,4.60
2019-02-20T07:37:32.345Z,4.70
2019-02-20T07:40:02.256Z,4.70
2019-02-20T07:42:32.271Z,4.80
2019-02-20T07:45:02.307Z,4.90
2019-02-20T07:47:32.539Z,5.10
2019-02-20T07:50:02.713Z,5.20
2019-02-20T07:52:32.706Z,5.40
2019-02-20T07:55:12.553Z,5.50
2019-02-20T07:57:34.503Z,5.70
2019-02-20T08:00:06.606Z,5.90
2019-02-20T08:02:36.586Z,6.00
2019-02-20T08:05:07.286Z,6.10
2019-02-20T08:07:37.296Z,6.20
2019-02-20T08:10:11.439Z,6.30
2019-02-20T08:12:41.450Z,6.30
2019-02-20T08:15:13.242Z,6.30
2019-02-20T08:17:43.339Z,6.40
2019-02-20T08:20:13.268Z,6.40
2019-02-20T08:22:43.464Z,6.40
2019-02-20T08:25:22.875Z,6.50
2019-02-20T08:27:50.958Z,6.50
2019-02-20T08:30:20.870Z,6.70
2019-02-20T08:32:51.079Z,6.80
2019-02-20T08:35:20.999Z,6.80
2019-02-20T08:37:51.108Z,6.90
2019-02-20T08:40:21.116Z,6.90
2019-02-20T08:42:51.027Z,7.00
2019-02-20T08:45:21.038Z,7.10
2019-02-20T08:47:50.957Z,7.20
2019-02-20T08:50:21.162Z,7.30
2019-02-20T08:52:51.370Z,7.30
2019-02-20T08:55:21.602Z,7.40
2019-02-20T08:57:51.595Z,7.40
2019-02-20T09:00:21.675Z,7.50
2019-02-20T09:02:51.613Z,7.60
2019-02-20T09:05:21.729Z,7.80
2019-02-20T09:07:51.855Z,7.90
2019-02-20T09:10:22.148Z,7.90
2019-02-20T09:12:52.256Z,8.00
2019-02-20T09:15:22.459Z,8.20
2019-02-20T09:17:52.371Z,8.30
2019-02-20T09:20:22.382Z,8.30
2019-02-20T09:22:52.297Z,8.30
2019-02-20T09:25:22.800Z,8.40
2019-02-20T09:27:52.910Z,8.50
2019-02-20T09:30:28.641Z,8.70
2019-02-20T09:32:54.661Z,8.90
2019-02-20T09:35:24.628Z,9.00
2019-02-20T09:37:54.424Z,9.10
2019-02-20T09:40:24.397Z,9.20
2019-02-20T09:42:56.523Z,9.40
2019-02-20T09:45:26.924Z,9.70
2019-02-20T09:47:57.821Z,9.80
2019-02-20T09:50:27.735Z,10.00
2019-02-20T09:52:57.846Z,10.00
2019-02-20T09:55:28.156Z,10.20
2019-02-20T09:57:58.366Z,10.40
2019-02-20T10:00:28.865Z,10.50
2019-02-20T10:02:58.780Z,10.70
2019-02-20T10:05:29.098Z,10.90
2019-02-20T10:07:59.178Z,11.00
2019-02-20T10:10:29.113Z,11.20
2019-02-20T10:12:59.316Z,11.50
2019-02-20T10:15:29.429Z,11.80
2019-02-20T10:17:59.438Z,12.20
2019-02-20T10:20:29.351Z,12.80
2019-02-20T10:22:59.562Z,13.50
2019-02-20T10:25:29.575Z,14.30
2019-02-20T10:27:59.484Z,14.70
2019-02-20T10:30:29.504Z,15.30
2019-02-20T10:32:59.416Z,15.70
2019-02-20T10:35:29.424Z,16.00
2019-02-20T10:37:59.335Z,16.10
2019-02-20T10:40:29.543Z,16.30
2019-02-20T10:42:59.460Z,16.60
2019-02-20T10:45:30.254Z,16.90
2019-02-20T10:48:00.194Z,17.00
2019-02-20T10:50:30.376Z,17.30
2019-02-20T10:53:00.291Z,17.60
2019-02-20T10:55:30.331Z,17.70
2019-02-20T10:58:00.413Z,17.90
2019-02-20T11:00:30.325Z,18.10
2019-02-20T11:03:00.535Z,18.30
2019-02-20T11:05:30.771Z,18.40
2019-02-20T11:08:00.864Z,18.80
2019-02-20T11:10:30.778Z,19.10
2019-02-20T11:13:00.679Z,19.00
2019-02-20T11:15:30.594Z,19.40
2019-02-20T11:18:00.504Z,19.60
2019-02-20T11:20:30.420Z,20.00
2019-02-20T11:23:00.531Z,20.00
2019-02-20T11:25:31.310Z,20.20
2019-02-20T11:28:01.222Z,20.30
2019-02-20T11:30:32.043Z,20.00
2019-02-20T11:33:03.454Z,20.20
2019-02-20T11:35:33.438Z,20.20
2019-02-20T11:38:03.546Z,20.10
2019-02-20T11:40:33.462Z,20.20
2019-02-20T11:43:03.503Z,20.30
2019-02-20T11:45:33.588Z,20.60
2019-02-20T11:48:03.502Z,20.50
2019-02-20T11:50:33.801Z,20.90
2019-02-20T11:53:03.935Z,20.80
2019-02-20T11:55:33.827Z,20.80
2019-02-20T11:58:03.743Z,20.80
2019-02-20T12:00:33.652Z,20.80
2019-02-20T12:03:03.668Z,21.10
2019-02-20T12:05:33.579Z,21.10
2019-02-20T12:08:03.908Z,20.80
2019-02-20T12:10:33.994Z,20.90
2019-02-20T12:13:04.303Z,21.00
2019-02-20T12:15:34.242Z,21.20
2019-02-20T12:18:04.128Z,21.40
2019-02-20T12:20:34.042Z,21.60
2019-02-20T12:23:04.447Z,21.70
2019-02-20T12:25:34.465Z,21.70
2019-02-20T12:28:04.770Z,21.80
2019-02-20T12:30:35.464Z,21.80
2019-02-20T12:33:05.871Z,21.90
2019-02-20T12:35:35.786Z,21.80
2019-02-20T12:38:05.685Z,22.10
2019-02-20T12:40:36.201Z,21.50
2019-02-20T12:43:06.114Z,21.50
2019-02-20T12:45:36.036Z,21.40
2019-02-20T12:48:06.039Z,21.60
2019-02-20T12:50:36.246Z,21.70
2019-02-20T12:53:06.161Z,22.00
2019-02-20T12:55:36.080Z,22.00
2019-02-20T12:58:05.989Z,22.10
2019-02-20T13:00:35.901Z,22.00
2019-02-20T13:03:06.407Z,21.80
2019-02-20T13:05:36.317Z,21.90
2019-02-20T13:08:06.234Z,21.70
2019-02-20T13:10:36.439Z,21.80
2019-02-20T13:13:06.479Z,21.70
2019-02-20T13:15:36.464Z,21.90
2019-02-20T13:18:06.381Z,21.90
2019-02-20T13:20:36.783Z,21.50
2019-02-20T13:23:07.225Z,21.70
2019-02-20T13:25:38.508Z,21.90
2019-02-20T13:28:08.882Z,22.00
2019-02-20T13:30:39.289Z,21.90
2019-02-20T13:33:09.495Z,21.90
2019-02-20T13:35:39.407Z,21.50
2019-02-20T13:38:09.323Z,21.40
2019-02-20T13:40:39.530Z,21.40
2019-02-20T13:43:12.195Z,21.40
2019-02-20T13:45:42.207Z,21.60
2019-02-20T13:48:12.121Z,21.70
2019-02-20T13:50:42.035Z,21.70
2019-02-20T13:53:14.179Z,21.50
2019-02-20T13:55:44.620Z,21.50
2019-02-20T13:58:14.920Z,21.00
2019-02-20T14:00:45.424Z,20.90
2019-02-20T14:03:15.337Z,21.20
2019-02-20T14:05:45.252Z,21.10
2019-02-20T14:08:15.458Z,20.90
2019-02-20T14:10:45.769Z,21.10
2019-02-20T14:13:15.680Z,20.50
2019-02-20T14:15:45.862Z,20.70
2019-02-20T14:18:15.800Z,20.80
2019-02-20T14:20:46.021Z,20.90
2019-02-20T14:23:15.922Z,20.90
2019-02-20T14:25:45.845Z,20.40
2019-02-20T14:28:15.754Z,20.60
2019-02-20T14:30:45.827Z,20.40
2019-02-20T14:33:15.971Z,20.60
2019-02-20T14:35:46.379Z,20.40
2019-02-20T14:38:16.388Z,20.40
2019-02-20T14:40:46.304Z,20.20
2019-02-20T14:43:16.508Z,20.20
2019-02-20T14:45:46.617Z,20.10
2019-02-20T14:48:17.075Z,19.80
2019-02-20T14:50:47.035Z,19.30
2019-02-20T14:53:16.912Z,19.60
2019-02-20T14:55:46.860Z,19.50
2019-02-20T14:58:16.981Z,19.50
2019-02-20T15:00:47.181Z,19.50
2019-02-20T15:03:17.296Z,19.60
2019-02-20T15:05:48.065Z,19.50
2019-02-20T15:08:18.099Z,19.30
2019-02-20T15:10:48.210Z,19.30
2019-02-20T15:13:18.523Z,19.10
2019-02-20T15:15:48.324Z,18.90
2019-02-20T15:18:18.539Z,18.70
2019-02-20T15:20:48.874Z,18.80
2019-02-20T15:23:18.859Z,18.90
2019-02-20T15:25:48.838Z,18.90
2019-02-20T15:28:20.715Z,18.80
2019-02-20T15:30:50.764Z,18.70
2019-02-20T15:33:21.041Z,18.60
2019-02-20T15:35:50.982Z,18.60
2019-02-20T15:38:21.020Z,18.50
2019-02-20T15:40:51.003Z,18.40
2019-02-20T15:43:21.413Z,18.30
2019-02-20T15:45:51.526Z,18.20
2019-02-20T15:48:23.514Z,18.10
2019-02-20T15:50:53.216Z,18.10
2019-02-20T15:53:23.324Z,18.10
2019-02-20T15:55:53.236Z,18.10
2019-02-20T15:58:24.854Z,18.00
2019-02-20T16:00:55.030Z,17.90
2019-02-20T16:03:25.040Z,17.80
2019-02-20T16:05:54.953Z,17.70
2019-02-20T16:08:24.870Z,17.60
2019-02-20T16:10:55.324Z,17.60
2019-02-20T16:13:25.157Z,17.40
2019-02-20T16:15:55.196Z,17.50
2019-02-20T16:18:25.307Z,17.50
2019-02-20T16:20:55.221Z,17.40
2019-02-20T16:23:25.235Z,17.40
2019-02-20T16:25:55.155Z,17.40
2019-02-20T16:28:33.437Z,17.30
2019-02-20T16:30:56.644Z,17.20
2019-02-20T16:33:26.852Z,17.20
2019-02-20T16:35:56.865Z,17.00
2019-02-20T16:38:26.876Z,17.00
2019-02-20T16:40:57.378Z,16.90
2019-02-20T16:43:27.460Z,16.90
2019-02-20T16:45:57.402Z,16.80
2019-02-20T16:48:27.316Z,16.70
2019-02-20T16:50:57.229Z,16.60
2019-02-20T16:53:28.435Z,16.50
2019-02-20T16:55:59.021Z,16.40
2019-02-20T16:58:28.939Z,16.30
2019-02-20T17:00:58.850Z,16.30
2019-02-20T17:03:28.861Z,16.20
2019-02-20T17:05:58.778Z,16.10
2019-02-20T17:08:29.276Z,16.10
2019-02-20T17:10:59.780Z,16.00
2019-02-20T17:13:30.080Z,15.90
2019-02-20T17:16:00.098Z,15.80
2019-02-20T17:18:30.313Z,15.70
2019-02-20T17:21:00.325Z,15.60
2019-02-20T17:23:30.361Z,15.60
2019-02-20T17:26:00.242Z,15.50
2019-02-20T17:28:30.548Z,15.40
2019-02-20T17:31:00.461Z,15.30
2019-02-20T17:33:30.771Z,15.20
2019-02-20T17:36:00.683Z,15.20
2019-02-20T17:38:30.696Z,15.10
2019-02-20T17:41:00.705Z,15.00
2019-02-20T17:43:30.619Z,14.90
2019-02-20T17:46:00.730Z,14.80
2019-02-20T17:48:30.643Z,14.80
2019-02-20T17:51:00.561Z,14.70
2019-02-20T17:53:31.059Z,14.70
2019-02-20T17:56:01.172Z,14.60
2019-02-20T17:58:31.086Z,14.50
2019-02-20T18:01:02.078Z,14.40
2019-02-20T18:03:31.991Z,14.30
2019-02-20T18:06:02.203Z,14.30
2019-02-20T18:08:32.117Z,14.20
2019-02-20T18:11:02.328Z,14.10
2019-02-20T18:13:32.936Z,14.10
2019-02-20T18:16:03.130Z,14.10
2019-02-20T18:18:33.639Z,14.00
2019-02-20T18:21:03.555Z,13.90
2019-02-20T18:23:33.462Z,13.90
2019-02-20T18:26:03.389Z,13.80
2019-02-20T18:28:33.582Z,13.70
2019-02-20T18:31:03.515Z,13.50
2019-02-20T18:33:33.421Z,13.60
2019-02-20T18:36:03.333Z,13.60
2019-02-20T18:38:33.236Z,13.50
2019-02-20T18:41:03.160Z,13.40
2019-02-20T18:43:33.066Z,13.40
2019-02-20T18:46:03.354Z,13.30
2019-02-20T18:48:33.286Z,13.30
2019-02-20T18:51:03.485Z,13.30
2019-02-20T18:53:33.930Z,13.20
2019-02-20T18:56:03.920Z,13.20
2019-02-20T18:58:34.445Z,13.10
2019-02-20T19:01:04.532Z,13.00
2019-02-20T19:03:34.548Z,12.90
2019-02-20T19:06:04.470Z,12.80
2019-02-20T19:08:41.969Z,12.80
2019-02-20T19:11:34.451Z,12.70
2019-02-20T19:14:37.433Z,12.70
2019-02-20T19:17:37.593Z,12.60
2019-02-20T19:20:36.023Z,12.50
2019-02-20T19:23:36.886Z,12.50
2019-02-20T19:26:23.025Z,12.40
2019-02-20T19:29:26.059Z,12.40
2019-02-20T19:32:21.518Z,12.40
2019-02-20T19:35:12.850Z,12.30
2019-02-20T19:38:18.866Z,12.20
2019-02-20T19:41:28.298Z,12.20
2019-02-20T19:44:37.545Z,12.10
2019-02-20T19:47:31.543Z,12.10
2019-02-20T19:50:42.554Z,12.00
2019-02-20T19:53:28.603Z,11.90
2019-02-20T19:56:27.385Z,11.90
2019-02-20T19:59:29.148Z,11.90
2019-02-20T20:02:12.346Z,12.00
2019-02-20T20:05:22.555Z,11.90
2019-02-20T20:08:02.622Z,11.90
2019-02-20T20:11:21.172Z,11.80
2019-02-20T20:14:16.447Z,11.70
2019-02-20T20:17:17.908Z,11.70
2019-02-20T20:20:13.405Z,11.70
2019-02-20T20:23:13.497Z,11.70
2019-02-20T20:26:05.648Z,11.60
2019-02-20T20:29:05.844Z,11.40
2019-02-20T20:31:50.256Z,11.40
2019-02-20T20:34:39.745Z,11.30
2019-02-20T20:37:26.138Z,11.40
2019-02-20T20:40:21.634Z,11.40
2019-02-20T20:42:58.623Z,11.30
2019-02-20T20:45:41.399Z,11.20
2019-02-20T20:48:57.910Z,11.20
2019-02-20T20:52:00.970Z,11.10
2019-02-20T20:54:43.956Z,11.10
2019-02-20T20:57:51.623Z,11.00
2019-02-20T21:00:41.098Z,11.00
2019-02-20T21:03:15.429Z,10.90
2019-02-20T21:06:01.860Z,10.90
2019-02-20T21:08:38.939Z,10.80
2019-02-20T21:11:30.879Z,10.80
2019-02-20T21:14:05.218Z,10.80
2019-02-20T21:16:39.555Z,10.70
2019-02-20T21:19:34.928Z,10.70
2019-02-20T21:22:52.139Z,10.70
2019-02-20T21:25:52.415Z,10.70
2019-02-20T21:28:41.721Z,10.60
2019-02-20T21:31:38.542Z,10.60
2019-02-20T21:34:36.964Z,10.50
2019-02-20T21:37:58.389Z,10.50
2019-02-20T21:40:54.944Z,10.40
2019-02-20T21:44:10.228Z,10.30
2019-02-20T21:47:13.216Z,10.20
2019-02-20T21:49:56.502Z,10.10
2019-02-20T21:53:03.854Z,10.00
2019-02-20T21:55:59.657Z,10.20
2019-02-20T21:58:57.859Z,10.10
2019-02-20T22:01:40.847Z,10.00
2019-02-20T22:04:48.408Z,9.90
2019-02-20T22:07:48.305Z,9.80
2019-02-20T22:10:25.594Z,9.70
2019-02-20T22:13:21.947Z,9.70
2019-02-20T22:16:25.932Z,9.90
2019-02-20T22:19:22.819Z,9.90
2019-02-20T22:22:29.124Z,9.90
2019-02-20T22:25:26.142Z,9.80
2019-02-20T22:28:24.374Z,9.80
2019-02-20T22:31:24.474Z,9.60
2019-02-20T22:34:13.650Z,9.30
2019-02-20T22:37:15.020Z,9.50
2019-02-20T22:40:27.305Z,9.20
2019-02-20T22:43:16.681Z,9.20
2019-02-20T22:46:15.005Z,9.50
2019-02-20T22:49:17.067Z,9.60
2019-02-20T22:52:03.403Z,9.60
2019-02-20T22:55:06.339Z,9.30
2019-02-20T22:57:46.375Z,9.40
2019-02-20T23:00:58.655Z,9.30
2019-02-20T23:03:48.035Z,9.20
2019-02-20T23:06:22.372Z,8.90
2019-02-20T23:09:14.795Z,8.80
2019-02-20T23:12:01.421Z,8.80
2019-02-20T23:14:41.658Z,9.00
2019-02-20T23:17:11.867Z,9.00
2019-02-20T23:19:41.973Z,9.00
2019-02-20T23:22:11.889Z,8.90
2019-02-20T23:24:42.283Z,8.80
2019-02-20T23:27:12.259Z,8.80
2019-02-20T23:29:42.709Z,8.50
2019-02-20T23:32:12.719Z,8.40
2019-02-20T23:34:42.930Z,8.50
2019-02-20T23:37:12.841Z,8.40
2019-02-20T23:39:42.755Z,8.20
2019-02-20T23:42:12.963Z,8.10
2019-02-20T23:44:43.271Z,8.00
2019-02-20T23:47:13.196Z,7.90
2019-02-20T23:49:43.098Z,7.80
2019-02-20T23:52:13.010Z,7.70
2019-02-20T23:54:42.924Z,7.70
2019-02-20T23:57:12.838Z,7.60
2019-02-20T23:59:42.753Z,7.60
